Time;durP1;ratioP1;P1;durP2;ratioP2;P2;SDS_P1;SDS_P2;PMS_P1;PMS_P2;Temp;Humidity;BMP_temperature;BMP_pressure;BME280_temperature;BME280_humidity;BME280_pressure;Samples;Min_cycle;Max_cycle;Signal;HPM_P1;HPM_P2
2022/06/02 00:00:24;;;;;;;;;;;;;;;14.16;49.82;97009.59;30001;982;1882;-60
2022/06/02 00:01:14;;;;;;;;;;;;;;;14.24;49.30;97017.00;30001;982;1886;-57
2022/06/02 00:01:50;;;;;;;;;;;;;;;14.25;49.33;97005.78;30001;983;1872;-56
2022/06/02 00:02:36;;;;;;;;;;;;;;;14.28;49.15;97007.06;30001;983;1872;-57
2022/06/02 00:03:35;;;;;;;;;;;;;;;14.29;49.24;97014.94;30001;983;1859;-57
2022/06/02 00:04:19;;;;;;;;;;;;;;;14.24;49.29;97011.53;30001;983;1868;-57
2022/06/02 00:05:01;;;;;;;;;;;;;;;14.17;49.41;97012.00;30001;983;1873;-59
2022/06/02 00:06:11;;;;;;;;;;;;;;;14.15;49.81;97013.44;30001;983;1886;-59
2022/06/02 00:06:48;;;;;;;;;;;;;;;14.07;51.12;97024.00;30001;982;1877;-59
2022/06/02 00:07:30;;;;;;;;;;;;;;;14.03;50.77;97011.28;30001;982;1886;-58
2022/06/02 00:08:04;;;;;;;;;;;;;;;14.01;50.26;97014.31;30001;982;1882;-59
2022/06/02 00:09:04;;;;;;;;;;;;;;;14.03;50.17;97017.53;30001;982;1873;-58
2022/06/02 00:09:53;;;;;;;;;;;;;;;14.05;49.75;97019.97;30001;983;1868;-58
2022/06/02 00:10:41;;;;;;;;;;;;;;;14.04;50.13;97013.69;30001;983;1877;-58
2022/06/02 00:11:21;;;;;;;;;;;;;;;14.01;50.44;97008.88;30001;983;1881;-59
2022/06/02 00:11:54;;;;;;;;;;;;;;;14.01;50.23;97014.31;30001;983;1886;-58
2022/06/02 00:12:35;;;;;;;;;;;;;;;14.00;50.19;97009.97;30001;983;1881;-58
2022/06/02 00:13:29;;;;;;;;;;;;;;;13.98;51.17;97009.47;30001;983;1886;-60
2022/06/02 00:14:05;;;;;;;;;;;;;;;13.95;51.12;97014.75;30001;982;1864;-59
2022/06/02 00:14:41;;;;;;;;;;;;;;;13.92;51.42;97018.91;30001;982;1864;-61
2022/06/02 00:15:38;;;;;;;;;;;;;;;13.92;51.04;97016.19;30001;982;1882;-58
2022/06/02 00:16:15;;;;;;;;;;;;;;;13.91;50.47;97014.56;30001;982;1882;-59
2022/06/02 00:17:04;;;;;;;;;;;;;;;13.89;51.23;97016.78;30001;983;1881;-59
2022/06/02 00:17:58;;;;;;;;;;;;;;;13.88;50.72;97020.63;30001;983;1885;-59
2022/06/02 00:18:51;;;;;;;;;;;;;;;13.90;50.37;97023.88;30001;983;1877;-58
2022/06/02 00:19:30;;;;;;;;;;;;;;;13.93;50.42;97022.44;30001;983;1868;-59
2022/06/02 00:20:08;;;;;;;;;;;;;;;13.91;50.73;97020.03;30001;983;1873;-60
2022/06/02 00:20:57;;;;;;;;;;;;;;;13.90;50.69;97023.06;30001;983;1886;-58
2022/06/02 00:21:31;;;;;;;;;;;;;;;13.89;50.44;97035.87;30001;982;1873;-59
2022/06/02 00:22:23;;;;;;;;;;;;;;;13.89;50.32;97027.72;30001;982;1886;-59
2022/06/02 00:23:06;;;;;;;;;;;;;;;13.94;50.57;97019.41;30001;982;1877;-57
2022/06/02 00:23:48;;;;;;;;;;;;;;;13.96;50.09;97022.63;30001;982;1886;-58
2022/06/02 00:24:42;;;;;;;;;;;;;;;13.95;50.10;97023.75;30001;983;1868;-59
2022/06/02 00:25:26;;;;;;;;;;;;;;;13.94;50.22;97024.84;30001;983;1872;-59
2022/06/02 00:26:06;;;;;;;;;;;;;;;13.90;50.60;97015.69;30001;983;1881;-59
2022/06/02 00:26:47;;;;;;;;;;;;;;;13.88;50.81;97017.09;30001;983;1885;-59
2022/06/02 00:27:21;;;;;;;;;;;;;;;13.88;50.35;97011.66;30001;983;1881;-58
2022/06/02 00:28:12;;;;;;;;;;;;;;;13.90;50.72;97012.94;30001;983;1886;-58
2022/06/02 00:29:09;;;;;;;;;;;;;;;13.90;50.55;97007.50;30001;982;1877;-60
2022/06/02 00:30:17;;;;;;;;;;;;;;;13.90;50.32;97012.94;30001;982;1868;-56
2022/06/02 00:30:54;;;;;;;;;;;;;;;13.92;51.21;97015.38;30001;982;1792;-59
2022/06/02 00:31:39;;;;;;;;;;;;;;;13.92;51.10;97012.66;30001;983;1885;-55
2022/06/02 00:32:17;;;;;;;;;;;;;;;13.89;50.81;97016.78;30001;983;1881;-58
2022/06/02 00:32:59;;;;;;;;;;;;;;;13.90;50.74;97012.94;30001;983;1885;-57
2022/06/02 00:33:53;;;;;;;;;;;;;;;13.94;50.66;97008.50;30001;983;1868;-55
2022/06/02 00:35:01;;;;;;;;;;;;;;;13.97;50.48;97007.88;30001;983;1872;-58
2022/06/02 00:35:36;;;;;;;;;;;;;;;13.99;50.10;97010.28;30001;982;1878;-57
2022/06/02 00:36:15;;;;;;;;;;;;;;;14.00;50.04;97018.16;30001;982;1886;-59
2022/06/02 00:37:01;;;;;;;;;;;;;;;13.99;50.03;97016.56;30001;982;1881;-58
2022/06/02 00:37:45;;;;;;;;;;;;;;;14.01;50.04;97014.31;30001;982;1886;-58
2022/06/02 00:38:21;;;;;;;;;;;;;;;13.99;49.94;97002.91;30001;982;1882;-57
2022/06/02 00:38:53;;;;;;;;;;;;;;;13.99;50.03;97008.38;30001;983;1872;-58
2022/06/02 00:39:24;;;;;;;;;;;;;;;13.97;50.27;97007.06;30001;983;1872;-58
2022/06/02 00:39:55;;;;;;;;;;;;;;;13.96;49.94;97011.72;30001;983;1872;-56
2022/06/02 00:40:27;;;;;;;;;;;;;;;13.95;49.97;97012.81;30001;983;1872;-53
2022/06/02 00:41:04;;;;;;;;;;;;;;;13.97;49.89;97001.59;30001;983;1797;-58
2022/06/02 00:41:55;;;;;;;;;;;;;;;13.96;50.51;97010.91;30001;983;1881;-58
2022/06/02 00:42:46;;;;;;;;;;;;;;;13.90;50.55;97012.94;30001;983;1881;-59
2022/06/02 00:43:39;;;;;;;;;;;;;;;13.98;49.69;97009.47;30001;982;1877;-58
2022/06/02 00:44:30;;;;;;;;;;;;;;;13.97;49.80;97007.88;30001;982;1869;-60
2022/06/02 00:45:04;;;;;;;;;;;;;;;13.96;50.23;97010.91;30001;982;1868;-57
2022/06/02 00:45:35;;;;;;;;;;;;;;;13.95;49.83;97021.00;30001;982;1873;-56
2022/06/02 00:46:25;;;;;;;;;;;;;;;13.93;50.27;97012.34;30001;982;1873;-58
2022/06/02 00:47:02;;;;;;;;;;;;;;;13.88;50.49;97008.91;30001;983;1885;-58
2022/06/02 00:47:55;;;;;;;;;;;;;;;13.85;51.31;97015.84;30001;983;1868;-61
2022/06/02 00:48:44;;;;;;;;;;;;;;;13.80;50.65;97024.12;30001;983;1877;-57
2022/06/02 00:49:43;;;;;;;;;;;;;;;13.87;50.60;97013.56;30001;983;1868;-58
2022/06/02 00:50:43;;;;;;;;;;;;;;;13.89;50.16;97011.34;30001;983;1872;-59
2022/06/02 00:51:17;;;;;;;;;;;;;;;13.85;50.52;97012.31;30001;982;1877;-55
2022/06/02 00:52:02;;;;;;;;;;;;;;;13.81;51.08;97025.75;30001;982;1886;-60
2022/06/02 00:52:53;;;;;;;;;;;;;;;13.75;51.39;97026.97;30001;982;1882;-59
2022/06/02 00:57:30;;;;;;;;;;;;;;;13.79;51.00;97027.16;30001;982;1869;-58
2022/06/02 00:57:57;;;;;;;;;;;;;;;13.67;51.82;97033.16;30001;983;1882;-59
2022/06/02 00:58:33;;;;;;;;;;;;;;;13.67;51.64;97025.00;30001;982;1873;-60
2022/06/02 00:59:32;;;;;;;;;;;;;;;13.66;53.34;97031.56;30001;982;1882;-60
2022/06/02 01:00:17;;;;;;;;;;;;;;;13.60;53.31;97032.78;30001;982;1860;-59
2022/06/02 01:00:53;;;;;;;;;;;;;;;13.58;52.77;97026.84;30001;983;1872;-59
2022/06/02 01:01:27;;;;;;;;;;;;;;;13.58;52.74;97026.84;30001;983;1760;-55
2022/06/02 01:01:58;;;;;;;;;;;;;;;13.57;53.13;97033.41;30001;983;1872;-60
2022/06/02 01:02:31;;;;;;;;;;;;;;;13.55;52.96;97033.72;30001;983;1877;-59
2022/06/02 01:03:07;;;;;;;;;;;;;;;13.55;52.81;97032.91;30001;983;1868;-59
2022/06/02 01:03:44;;;;;;;;;;;;;;;13.53;53.59;97035.13;30001;983;1868;-60
2022/06/02 01:04:20;;;;;;;;;;;;;;;13.51;53.26;97035.47;30001;983;1881;-59
2022/06/02 01:04:54;;;;;;;;;;;;;;;13.50;53.17;97030.31;30001;983;1877;-59
2022/06/02 01:05:38;;;;;;;;;;;;;;;13.52;53.16;97036.25;30001;979;1881;-59
2022/06/02 01:06:27;;;;;;;;;;;;;;;13.52;52.70;97025.34;30001;982;1868;-60
2022/06/02 01:07:23;;;;;;;;;;;;;;;13.51;52.92;97031.94;30001;982;1873;-59
2022/06/02 01:08:01;;;;;;;;;;;;;;;13.52;52.63;97033.50;30001;982;1877;-59
2022/06/02 01:08:50;;;;;;;;;;;;;;;13.52;52.44;97033.50;30001;983;1881;-59
2022/06/02 01:09:31;;;;;;;;;;;;;;;13.52;53.00;97038.97;30001;983;1868;-59
2022/06/02 01:10:07;;;;;;;;;;;;;;;13.51;52.70;97034.66;30001;983;1881;-59
2022/06/02 01:10:51;;;;;;;;;;;;;;;13.51;52.27;97031.94;30001;983;1864;-59
2022/06/02 01:11:57;;;;;;;;;;;;;;;13.51;52.17;97042.84;30001;983;1872;-59
2022/06/02 01:12:46;;;;;;;;;;;;;;;13.50;52.12;97038.50;30001;983;1873;-59
2022/06/02 01:13:32;;;;;;;;;;;;;;;13.54;52.02;97036.75;30001;982;1873;-59
2022/06/02 01:14:21;;;;;;;;;;;;;;;13.54;51.85;97037.53;30001;982;1877;-59
2022/06/02 01:15:11;;;;;;;;;;;;;;;13.53;52.01;97030.47;30001;982;1873;-59
2022/06/02 01:15:49;;;;;;;;;;;;;;;13.51;52.45;97037.38;30001;982;1860;-59
2022/06/02 01:16:33;;;;;;;;;;;;;;;13.48;52.19;97032.53;30001;983;1859;-59
2022/06/02 01:17:30;;;;;;;;;;;;;;;13.46;52.40;97034.78;30001;983;1877;-58
2022/06/02 01:18:16;;;;;;;;;;;;;;;13.47;52.02;97039.91;30001;983;1877;-59
2022/06/02 01:18:56;;;;;;;;;;;;;;;13.44;52.18;97037.81;30001;983;1877;-58
2022/06/02 01:19:38;;;;;;;;;;;;;;;13.45;52.61;97038.59;30001;983;1881;-58
2022/06/02 01:20:19;;;;;;;;;;;;;;;13.42;53.52;97045.47;30001;983;1877;-59
2022/06/02 01:21:25;;;;;;;;;;;;;;;13.40;53.60;97044.97;30001;982;1868;-59
2022/06/02 01:22:14;;;;;;;;;;;;;;;13.38;52.85;97042.56;30001;982;1864;-60
2022/06/02 01:23:11;;;;;;;;;;;;;;;13.39;52.56;97041.44;30001;982;1873;-59
2022/06/02 01:23:50;;;;;;;;;;;;;;;13.43;52.54;97035.37;30001;983;1872;-59
2022/06/02 01:24:44;;;;;;;;;;;;;;;13.44;53.33;97042.44;30001;983;1881;-55
2022/06/02 01:25:36;;;;;;;;;;;;;;;13.41;53.07;97043.87;30001;983;1859;-56
2022/06/02 01:26:19;;;;;;;;;;;;;;;13.41;52.70;97032.97;30001;983;1868;-58
2022/06/02 01:27:27;;;;;;;;;;;;;;;13.41;53.03;97033.78;30001;983;1877;-59
2022/06/02 01:28:18;;;;;;;;;;;;;;;13.42;53.01;97040.03;30001;983;1864;-56
2022/06/02 01:29:08;;;;;;;;;;;;;;;13.43;52.84;97035.37;30001;982;1864;-56
2022/06/02 01:29:57;;;;;;;;;;;;;;;13.40;52.52;97029.44;30001;982;1873;-56
2022/06/02 01:30:43;;;;;;;;;;;;;;;13.38;53.02;97036.31;30001;982;1873;-55
2022/06/02 01:31:18;;;;;;;;;;;;;;;13.37;52.54;97035.50;30001;983;1881;-58
2022/06/02 01:32:11;;;;;;;;;;;;;;;13.38;52.49;97044.47;30001;983;1877;-58
2022/06/02 01:33:02;;;;;;;;;;;;;;;13.37;52.45;97040.94;30001;983;1868;-60
2022/06/02 01:33:43;;;;;;;;;;;;;;;13.36;52.17;97036.59;30001;983;1864;-59
2022/06/02 01:34:38;;;;;;;;;;;;;;;13.38;53.14;97045.28;30002;804;1013;-58
2022/06/02 01:35:22;;;;;;;;;;;;;;;13.37;52.57;97046.41;30001;982;1873;-56
2022/06/02 01:36:15;;;;;;;;;;;;;;;13.37;53.57;97043.66;30001;982;1881;-56
2022/06/02 01:37:15;;;;;;;;;;;;;;;13.37;52.96;97035.50;30001;982;1864;-60
2022/06/02 01:38:02;;;;;;;;;;;;;;;13.36;52.96;97047.50;30001;982;1869;-61
2022/06/02 01:38:56;;;;;;;;;;;;;;;13.36;53.12;97043.97;30001;983;1864;-58
2022/06/02 01:39:48;;;;;;;;;;;;;;;13.43;52.73;97043.56;30001;983;1872;-57
2022/06/02 01:40:33;;;;;;;;;;;;;;;13.44;52.28;97037.00;30001;983;1873;-59
2022/06/02 01:41:19;;;;;;;;;;;;;;;13.45;52.30;97038.59;30001;983;1881;-56
2022/06/02 01:42:13;;;;;;;;;;;;;;;13.51;52.17;97038.19;30001;983;1877;-58
2022/06/02 01:42:53;;;;;;;;;;;;;;;13.50;52.06;97036.56;30001;982;1881;-58
2022/06/02 01:43:38;;;;;;;;;;;;;;;13.45;52.14;97041.34;30001;982;1864;-57
2022/06/02 01:44:29;;;;;;;;;;;;;;;13.45;52.32;97044.06;30001;982;1873;-55
2022/06/02 01:45:08;;;;;;;;;;;;;;;13.41;52.04;97036.50;30001;982;1873;-56
2022/06/02 01:45:46;;;;;;;;;;;;;;;13.38;52.02;97034.38;30001;982;1869;-57
2022/06/02 01:46:43;;;;;;;;;;;;;;;13.37;52.24;97043.66;30001;983;1855;-58
2022/06/02 01:47:27;;;;;;;;;;;;;;;13.33;52.27;97047.31;30001;983;1877;-56
2022/06/02 01:48:20;;;;;;;;;;;;;;;13.29;52.57;97043.59;30001;983;1877;-58
2022/06/02 01:49:30;;;;;;;;;;;;;;;13.36;52.39;97043.97;30001;983;1877;-57
2022/06/02 01:50:20;;;;;;;;;;;;;;;13.35;52.81;97045.91;30001;983;1873;-58
2022/06/02 01:51:26;;;;;;;;;;;;;;;13.34;52.25;97047.00;30001;982;1877;-56
2022/06/02 01:52:23;;;;;;;;;;;;;;;13.31;52.54;97039.44;30001;982;1860;-58
2022/06/02 01:53:00;;;;;;;;;;;;;;;13.29;52.67;97047.12;30001;982;1873;-57
2022/06/02 01:53:51;;;;;;;;;;;;;;;13.27;52.39;97043.87;30001;983;1876;-58
2022/06/02 01:54:50;;;;;;;;;;;;;;;13.32;52.71;97046.50;30001;983;1877;-58
2022/06/02 01:55:44;;;;;;;;;;;;;;;13.30;52.88;97048.72;30001;983;1873;-58
2022/06/02 01:56:35;;;;;;;;;;;;;;;13.29;52.86;97058.00;30001;983;1877;-55
2022/06/02 01:57:26;;;;;;;;;;;;;;;13.26;53.07;97052.37;30001;983;1859;-55
2022/06/02 01:58:26;;;;;;;;;;;;;;;13.27;52.99;97046.63;30001;982;1868;-59
2022/06/02 01:59:26;;;;;;;;;;;;;;;13.26;52.85;97058.63;30001;982;1873;-56
2022/06/02 02:00:16;;;;;;;;;;;;;;;13.24;52.96;97058.13;30001;982;1877;-55
2022/06/02 02:00:54;;;;;;;;;;;;;;;13.23;52.71;97052.97;30001;982;1877;-57
2022/06/02 02:01:41;;;;;;;;;;;;;;;13.24;52.90;97060.84;30001;983;1881;-56
2022/06/02 02:02:17;;;;;;;;;;;;;;;13.23;53.13;97061.97;30001;983;1863;-57
2022/06/02 02:03:13;;;;;;;;;;;;;;;13.21;52.89;97060.66;30001;983;1872;-56
2022/06/02 02:03:55;;;;;;;;;;;;;;;13.18;53.18;97055.81;30001;983;1872;-56
2022/06/02 02:04:50;;;;;;;;;;;;;;;13.17;52.87;97055.00;30001;983;1881;-57
2022/06/02 02:05:52;;;;;;;;;;;;;;;13.18;53.07;97059.34;30001;982;1877;-58
2022/06/02 02:06:42;;;;;;;;;;;;;;;13.16;54.17;97067.03;30001;982;1864;-56
2022/06/02 02:07:35;;;;;;;;;;;;;;;13.17;53.55;97060.44;30001;982;1860;-57
2022/06/02 02:08:26;;;;;;;;;;;;;;;13.17;53.36;97062.41;30001;983;1863;-56
2022/06/02 02:09:11;;;;;;;;;;;;;;;13.17;53.38;97060.44;30001;969;1886;-58
2022/06/02 02:10:01;;;;;;;;;;;;;;;13.16;53.32;97058.87;30001;983;1881;-57
2022/06/02 02:10:44;;;;;;;;;;;;;;;13.16;53.45;97063.50;30001;983;1868;-57
2022/06/02 02:11:38;;;;;;;;;;;;;;;13.17;53.28;97065.91;30001;983;1868;-55
2022/06/02 02:12:14;;;;;;;;;;;;;;;13.19;53.26;97062.88;30001;983;1868;-58
2022/06/02 02:13:17;;;;;;;;;;;;;;;13.19;53.42;97069.13;30001;983;1868;-56
2022/06/02 02:14:07;;;;;;;;;;;;;;;13.23;52.84;97063.88;30001;982;1864;-57
2022/06/02 02:14:51;;;;;;;;;;;;;;;13.24;52.86;97066.28;30001;982;1873;-57
2022/06/02 02:15:40;;;;;;;;;;;;;;;13.20;53.57;97076.19;30001;983;1877;-57
2022/06/02 02:16:29;;;;;;;;;;;;;;;13.17;53.29;97065.91;30001;960;1795;-56
2022/06/02 02:17:17;;;;;;;;;;;;;;;13.15;53.64;97068.13;30001;983;1859;-57
2022/06/02 02:18:14;;;;;;;;;;;;;;;13.13;53.60;97075.78;30001;983;1873;-55
2022/06/02 02:19:19;;;;;;;;;;;;;;;13.09;53.66;97070.12;30001;983;1859;-58
2022/06/02 02:20:10;;;;;;;;;;;;;;;13.13;53.47;97069.53;30001;982;1868;-57
2022/06/02 02:20:59;;;;;;;;;;;;;;;13.12;54.24;97071.44;30001;982;1873;-57
2022/06/02 02:21:35;;;;;;;;;;;;;;;13.10;53.65;97076.41;30001;982;1882;-58
2022/06/02 02:22:16;;;;;;;;;;;;;;;13.10;53.68;97070.94;30001;982;1877;-58
2022/06/02 02:22:52;;;;;;;;;;;;;;;13.12;53.70;97068.72;30001;982;1869;-57
2022/06/02 02:23:32;;;;;;;;;;;;;;;13.10;53.73;97076.41;30001;983;1868;-57
2022/06/02 02:24:22;;;;;;;;;;;;;;;13.10;53.96;97076.41;30001;983;1881;-55
2022/06/02 02:25:22;;;;;;;;;;;;;;;13.07;54.09;97074.28;30001;983;1873;-57
2022/06/02 02:25:57;;;;;;;;;;;;;;;13.07;53.85;97068.81;30001;983;1877;-55
2022/06/02 02:26:33;;;;;;;;;;;;;;;13.08;53.87;97079.41;30001;983;1877;-57
2022/06/02 02:27:07;;;;;;;;;;;;;;;13.11;53.99;97074.47;30001;982;1881;-56
2022/06/02 02:28:02;;;;;;;;;;;;;;;13.11;53.57;97072.56;30001;982;1877;-58
2022/06/02 02:29:04;;;;;;;;;;;;;;;13.11;53.94;97078.00;30001;982;1860;-56
2022/06/02 02:29:53;;;;;;;;;;;;;;;13.12;53.51;97071.44;30001;982;1864;-57
2022/06/02 02:30:28;;;;;;;;;;;;;;;13.13;53.60;97075.78;30001;983;1872;-56
2022/06/02 02:31:27;;;;;;;;;;;;;;;13.09;54.06;97075.59;30001;983;1876;-58
2022/06/02 02:32:11;;;;;;;;;;;;;;;13.04;54.43;97077.59;30001;983;1877;-58
2022/06/02 02:33:00;;;;;;;;;;;;;;;13.01;53.88;97073.56;30001;983;1877;-57
2022/06/02 02:33:37;;;;;;;;;;;;;;;12.99;55.50;97083.16;30001;983;1860;-57
2022/06/02 02:34:26;;;;;;;;;;;;;;;12.94;55.01;97083.25;30001;983;1868;-57
2022/06/02 02:35:22;;;;;;;;;;;;;;;12.89;55.63;97075.97;30001;961;1894;-57
2022/06/02 02:36:22;;;;;;;;;;;;;;;12.86;55.15;97075.78;30001;982;1873;-55
2022/06/02 02:37:11;;;;;;;;;;;;;;;12.84;55.61;97078.81;30001;982;1864;-59
2022/06/02 02:38:08;;;;;;;;;;;;;;;12.84;55.12;97072.56;30001;982;1869;-57
2022/06/02 02:38:57;;;;;;;;;;;;;;;12.82;55.19;97078.31;30001;983;1864;-57
2022/06/02 02:39:46;;;;;;;;;;;;;;;12.81;55.07;97073.19;30001;983;1859;-56
2022/06/02 02:40:37;;;;;;;;;;;;;;;12.82;55.36;97075.56;30001;983;1877;-58
2022/06/02 02:41:12;;;;;;;;;;;;;;;12.79;55.21;97072.69;30001;987;1877;-57
2022/06/02 02:41:48;;;;;;;;;;;;;;;12.79;55.64;97080.84;30001;983;1868;-57
2022/06/02 02:42:24;;;;;;;;;;;;;;;12.77;56.12;97083.06;30001;982;1855;-57
2022/06/02 02:43:04;;;;;;;;;;;;;;;12.75;56.22;97081.44;30001;982;1881;-58
2022/06/02 02:43:38;;;;;;;;;;;;;;;12.73;55.75;97083.66;30001;982;1877;-55
2022/06/02 02:44:20;;;;;;;;;;;;;;;12.72;55.54;97083.97;30001;982;1869;-59
2022/06/02 02:45:02;;;;;;;;;;;;;;;12.70;55.62;97078.81;30001;982;1858;-57
2022/06/02 02:46:05;;;;;;;;;;;;;;;12.72;55.49;97081.25;30001;983;1881;-56
2022/06/02 02:47:04;;;;;;;;;;;;;;;12.70;56.57;97089.72;30001;983;1872;-57
2022/06/02 02:47:57;;;;;;;;;;;;;;;12.68;56.81;97083.75;30001;983;1877;-58
2022/06/02 02:48:35;;;;;;;;;;;;;;;12.70;56.10;97078.81;30001;983;1877;-58
2022/06/02 02:49:29;;;;;;;;;;;;;;;12.72;56.26;97079.31;30001;983;1868;-58
2022/06/02 02:50:15;;;;;;;;;;;;;;;12.74;56.03;97079.84;30001;968;1883;-57
2022/06/02 02:50:55;;;;;;;;;;;;;;;12.76;55.93;97084.97;30001;982;1882;-57
2022/06/02 02:51:49;;;;;;;;;;;;;;;12.77;55.60;97083.06;30001;982;1878;-55
2022/06/02 02:52:24;;;;;;;;;;;;;;;12.78;55.73;97084.69;30001;983;1877;-57
2022/06/02 02:53:03;;;;;;;;;;;;;;;12.83;55.03;97076.38;30001;983;1877;-58
2022/06/02 02:53:40;;;;;;;;;;;;;;;12.88;54.62;97076.28;30001;983;1868;-58
2022/06/02 02:54:21;;;;;;;;;;;;;;;12.89;54.77;97080.63;30001;983;1868;-56
2022/06/02 02:55:05;;;;;;;;;;;;;;;12.87;54.50;97077.41;30001;983;1881;-58
2022/06/02 02:55:45;;;;;;;;;;;;;;;12.83;54.61;97076.38;30001;983;1877;-59
2022/06/02 02:56:36;;;;;;;;;;;;;;;12.82;55.13;97085.69;30001;983;1881;-57
2022/06/02 02:57:13;;;;;;;;;;;;;;;12.79;54.80;97075.41;30001;983;1873;-58
2022/06/02 02:58:10;;;;;;;;;;;;;;;12.82;54.97;97074.81;30001;982;1881;-57
2022/06/02 02:58:47;;;;;;;;;;;;;;;12.81;54.89;97079.44;30001;962;1880;-56
2022/06/02 02:59:41;;;;;;;;;;;;;;;12.83;54.90;97076.38;30001;982;1873;-57
2022/06/02 03:00:15;;;;;;;;;;;;;;;12.83;54.61;97079.09;30001;983;1877;-57
2022/06/02 03:01:07;;;;;;;;;;;;;;;12.83;54.75;97076.38;30001;983;1881;-57
2022/06/02 03:01:57;;;;;;;;;;;;;;;12.82;55.31;97080.25;30001;983;1863;-57
2022/06/02 03:02:32;;;;;;;;;;;;;;;12.78;55.16;97076.50;30002;983;1872;-58
2022/06/02 03:03:21;;;;;;;;;;;;;;;12.77;54.84;97078.44;30001;983;1877;-59
2022/06/02 03:04:21;;;;;;;;;;;;;;;12.77;55.31;97083.88;30002;983;1860;-58
2022/06/02 03:05:05;;;;;;;;;;;;;;;12.77;54.87;97072.16;30002;982;1864;-56
2022/06/02 03:05:48;;;;;;;;;;;;;;;12.77;56.26;97085.78;30002;982;1868;-59
2022/06/02 03:06:23;;;;;;;;;;;;;;;12.73;55.62;97082.84;30002;982;1869;-57
2022/06/02 03:06:54;;;;;;;;;;;;;;;12.73;55.63;97083.66;30002;982;1869;-56
2022/06/02 03:07:25;;;;;;;;;;;;;;;12.73;56.31;97089.09;30002;983;1868;-59
2022/06/02 03:08:00;;;;;;;;;;;;;;;12.72;56.12;97082.03;30002;983;1881;-57
2022/06/02 03:08:40;;;;;;;;;;;;;;;12.69;56.26;97079.94;30002;983;1863;-55
2022/06/02 03:09:33;;;;;;;;;;;;;;;12.70;56.34;97084.25;30002;983;1859;-56
2022/06/02 03:10:08;;;;;;;;;;;;;;;12.69;56.60;97082.66;30002;983;1859;-57
2022/06/02 03:10:42;;;;;;;;;;;;;;;12.67;56.45;97084.88;30002;983;1873;-59
2022/06/02 03:11:33;;;;;;;;;;;;;;;12.66;56.46;97083.25;30002;983;1877;-57
2022/06/02 03:12:29;;;;;;;;;;;;;;;12.65;57.31;97092.53;30002;983;1877;-57
2022/06/02 03:13:26;;;;;;;;;;;;;;;12.64;56.63;97088.19;30002;982;1873;-58
2022/06/02 03:14:16;;;;;;;;;;;;;;;12.65;56.15;97087.09;30002;982;1877;-59
2022/06/02 03:15:07;;;;;;;;;;;;;;;12.66;56.13;97088.69;30002;986;1873;-58
2022/06/02 03:15:42;;;;;;;;;;;;;;;12.64;54.93;97085.47;30002;983;1868;-57
2022/06/02 03:16:12;;;;;;;;;;;;;;;12.63;54.96;97088.50;30002;983;1868;-58
2022/06/02 03:16:50;;;;;;;;;;;;;;;12.63;55.07;97081.13;30002;983;1881;-57
2022/06/02 03:17:52;;;;;;;;;;;;;;;12.64;54.89;97080.03;30002;983;1877;-57
2022/06/02 03:18:48;;;;;;;;;;;;;;;12.64;54.64;97084.66;30002;960;1900;-58
2022/06/02 03:19:28;;;;;;;;;;;;;;;12.63;54.97;97083.84;30002;983;1877;-58
2022/06/02 03:20:04;;;;;;;;;;;;;;;12.65;55.01;97080.81;30002;964;1900;-59
2022/06/02 03:20:50;;;;;;;;;;;;;;;12.65;55.22;97086.28;30002;982;1864;-58
2022/06/02 03:21:35;;;;;;;;;;;;;;;12.65;54.80;97081.63;30002;982;1860;-57
2022/06/02 03:22:24;;;;;;;;;;;;;;;12.66;54.95;97087.88;30002;982;1864;-55
2022/06/02 03:23:21;;;;;;;;;;;;;;;12.67;55.15;97084.06;30002;983;1864;-58
2022/06/02 03:24:15;;;;;;;;;;;;;;;12.69;54.77;97082.66;30002;983;1872;-58
2022/06/02 03:25:08;;;;;;;;;;;;;;;12.70;54.83;97089.72;30002;983;1877;-59
2022/06/02 03:25:51;;;;;;;;;;;;;;;12.70;55.08;97086.19;30002;983;1872;-57
2022/06/02 03:26:40;;;;;;;;;;;;;;;12.70;54.99;97084.25;30002;983;1881;-57
2022/06/02 03:27:19;;;;;;;;;;;;;;;12.70;54.74;97081.53;30002;964;1873;-58
2022/06/02 03:27:58;;;;;;;;;;;;;;;12.69;54.28;97082.66;30002;982;1873;-58
2022/06/02 03:28:38;;;;;;;;;;;;;;;12.67;54.20;97078.62;30002;982;1877;-56
2022/06/02 03:29:32;;;;;;;;;;;;;;;12.66;55.19;97091.41;30002;982;1882;-58
2022/06/02 03:30:19;;;;;;;;;;;;;;;12.63;54.66;97083.03;30002;985;1872;-57
2022/06/02 03:30:54;;;;;;;;;;;;;;;12.61;54.71;97088.78;30002;983;1881;-59
2022/06/02 03:31:48;;;;;;;;;;;;;;;12.60;54.64;97084.44;30002;983;1863;-57
2022/06/02 03:32:38;;;;;;;;;;;;;;;12.61;56.03;97093.41;30002;983;1868;-58
2022/06/02 03:33:15;;;;;;;;;;;;;;;12.59;56.06;97092.91;30002;983;1873;-57
2022/06/02 03:34:06;;;;;;;;;;;;;;;12.58;55.47;97097.56;30002;983;1881;-58
2022/06/02 03:34:50;;;;;;;;;;;;;;;12.57;55.08;97090.50;30002;982;1873;-57
2022/06/02 03:35:44;;;;;;;;;;;;;;;12.58;55.26;97094.81;30002;982;1881;-57
2022/06/02 03:36:37;;;;;;;;;;;;;;;12.59;55.92;97099.16;30002;982;1860;-58
2022/06/02 03:37:33;;;;;;;;;;;;;;;12.58;55.61;97097.56;30002;982;1855;-58
2022/06/02 03:38:32;;;;;;;;;;;;;;;12.57;55.54;97095.94;30002;983;1876;-58
2022/06/02 03:39:05;;;;;;;;;;;;;;;12.55;55.50;97095.44;30002;983;1864;-58
2022/06/02 03:40:05;;;;;;;;;;;;;;;12.56;55.82;97098.97;30002;983;1868;-58
2022/06/02 03:40:59;;;;;;;;;;;;;;;12.53;56.89;97105.00;30002;983;1877;-59
2022/06/02 03:41:52;;;;;;;;;;;;;;;12.47;56.87;97109.75;30002;983;1877;-55
2022/06/02 03:42:33;;;;;;;;;;;;;;;12.48;56.50;97108.62;30002;982;1877;-58
2022/06/02 03:43:27;;;;;;;;;;;;;;;12.48;56.66;97105.88;30002;982;1864;-58
2022/06/02 03:44:11;;;;;;;;;;;;;;;12.48;56.31;97105.88;30002;982;1868;-56
2022/06/02 03:45:08;;;;;;;;;;;;;;;12.49;56.08;97104.78;30002;982;1878;-55
2022/06/02 03:45:57;;;;;;;;;;;;;;;12.47;57.16;97112.47;30002;983;1877;-58
2022/06/02 03:46:51;;;;;;;;;;;;;;;12.46;56.88;97110.84;30002;983;1868;-58
2022/06/02 03:47:42;;;;;;;;;;;;;;;12.42;57.06;97115.28;30002;983;1881;-59
2022/06/02 03:48:32;;;;;;;;;;;;;;;12.40;56.76;97103.88;30002;983;1859;-55
2022/06/02 03:49:13;;;;;;;;;;;;;;;12.37;57.64;97115.38;30002;983;1868;-57
2022/06/02 03:50:04;;;;;;;;;;;;;;;12.36;57.57;97119.19;30002;982;1776;-59
2022/06/02 03:50:51;;;;;;;;;;;;;;;12.35;57.16;97114.84;30002;982;1881;-56
2022/06/02 03:51:47;;;;;;;;;;;;;;;12.34;57.28;97105.88;30002;982;1878;-55
2022/06/02 03:52:43;;;;;;;;;;;;;;;12.32;57.64;97115.44;30002;982;1864;-57
2022/06/02 03:53:26;;;;;;;;;;;;;;;12.32;57.15;97113.53;30002;983;1855;-58
2022/06/02 03:54:06;;;;;;;;;;;;;;;12.33;57.30;97122.50;30001;983;1881;-56
2022/06/02 03:55:12;;;;;;;;;;;;;;;12.30;56.37;97113.03;30001;983;1877;-56
2022/06/02 03:56:01;;;;;;;;;;;;;;;12.30;56.54;97117.66;30002;983;1877;-59
2022/06/02 03:56:47;;;;;;;;;;;;;;;12.29;56.93;97126.91;30002;983;1868;-59
2022/06/02 03:57:34;;;;;;;;;;;;;;;12.27;57.20;97126.41;30001;982;1869;-59
2022/06/02 03:58:16;;;;;;;;;;;;;;;12.24;57.10;97125.09;30001;982;1855;-58
2022/06/02 03:59:11;;;;;;;;;;;;;;;12.23;58.13;97133.56;30001;982;1882;-57
2022/06/02 04:00:07;;;;;;;;;;;;;;;12.21;58.57;97130.31;30001;983;1872;-58
2022/06/02 04:00:47;;;;;;;;;;;;;;;12.17;58.16;97126.56;30001;983;1876;-57
2022/06/02 04:01:19;;;;;;;;;;;;;;;12.16;57.70;97119.50;30001;983;1877;-55
2022/06/02 04:02:06;;;;;;;;;;;;;;;12.15;57.91;97126.87;30001;983;1881;-58
2022/06/02 04:02:41;;;;;;;;;;;;;;;12.13;58.01;97122.84;30001;983;1863;-57
2022/06/02 04:03:18;;;;;;;;;;;;;;;12.13;58.27;97115.47;30001;983;1872;-57
2022/06/02 04:04:04;;;;;;;;;;;;;;;12.13;58.34;97120.13;30001;983;1864;-57
2022/06/02 04:05:00;;;;;;;;;;;;;;;12.11;57.59;97114.19;30001;982;1873;-55
2022/06/02 04:05:49;;;;;;;;;;;;;;;12.10;58.43;97118.00;30001;982;1873;-57
2022/06/02 04:06:42;;;;;;;;;;;;;;;12.10;58.14;97120.72;30001;982;1881;-55
2022/06/02 04:07:36;;;;;;;;;;;;;;;12.12;58.57;97121.25;30001;983;1872;-56
2022/06/02 04:08:14;;;;;;;;;;;;;;;12.11;58.53;97122.34;30001;983;1863;-57
2022/06/02 04:09:03;;;;;;;;;;;;;;;12.10;58.28;97124.25;30001;983;1868;-57
2022/06/02 04:09:54;;;;;;;;;;;;;;;12.10;58.59;97118.81;30001;983;1859;-58
2022/06/02 04:10:47;;;;;;;;;;;;;;;12.07;59.84;97120.22;30001;983;1864;-59
2022/06/02 04:14:00;;;;;;;;;;;;;;;12.03;59.17;97108.31;30001;982;1877;-57
2022/06/02 04:14:42;;;;;;;;;;;;;;;12.05;58.17;97106.09;30001;983;1868;-56
2022/06/02 04:15:20;;;;;;;;;;;;;;;12.06;58.27;97105.00;30001;983;1881;-56